Wilmette, IL

4:58 PM CDT on April 25, 2015 (GMT -0500)
West Wilmette | | Change Station
CLOSE
Current Station
Personal Weather Station
Location: Wilmette, IL
Elevation: 633 ft
Nearby Weather Stations

Elev 633 ft 42.08 °N, 87.74 °W | Updated 1 minute ago

Overcast
Overcast
44.1 °F
Feels Like 44 °F
N
0.0
Wind Variable Wind from NNE

Today
High -- | Low -- °F
--% Chance of Precip.
Yesterday
High -- | Low -- °F
Precip. -- in
5:55 AM 7:43 PM
Waxing Crescent, 49% visible
Pressure 29.79 in
Visibility 10.0 miles
Clouds Scattered Clouds 6000 ft
Mostly Cloudy 12000 ft
Windchill 44 °F
Dew Point 39 °F
Humidity 81%
Rainfall 0.09 in
Snow Depth Not available.
UV 2 out of 12
Pollen 1.40 out of 12
Air Quality Not available.
Flu Activity Regional
METAR KPWK 252152Z 04015KT 10SM SCT060 BKN120 07/03 A2978 RMK AO2 SLP086 T00720033 $

More Conditions Fewer Conditions

Pressure 29.79 in
Visibility 10.0 miles
Clouds Scattered Clouds 6000 ft
Mostly Cloudy 12000 ft
Windchill 44 °F
Dew Point 39 °F
Humidity 81%
Rainfall 0.09 in
Snow Depth Not available.
UV 2 out of 12
Pollen 1.40 out of 12
Air Quality Not available.
Flu Activity Regional
METAR KPWK 252152Z 04015KT 10SM SCT060 BKN120 07/03 A2978 RMK AO2 SLP086 T00720033 $

More Conditions Fewer Conditions

10-Day Weather Forecast

Almanac

Astronomy

Apr. 25, 2015 Rise Set
Actual Time
Civil Twilight
Nautical Twilight
Astronomical Twilight
Moon
Length of Visible Light
Length of Day
Tomorrow will be .
, % of the Moon is Illuminated

Today's Extremes

State Highs State Lows

Community

WunderPhotos

Upload Photos

1,816,820 photos uploaded!

WunderBlogs® & News

Nearby

Air Quality

  Air Quality AQ Index Pollutant
Not available.

Snow Depth

Station Depth Elevation

Earthquake Activity

City Distance Mag. Time & Date
Minimum magnitude displayed is 2.5.

Coastal Water Temperatures

Place Temperature

Stations

Nearby Weather Stations

Station Location Temp. Windchill Dew Point Humidity Wind Precip. Elev Updated Type